Time;durP1;ratioP1;P1;durP2;ratioP2;P2;SDS_P1;SDS_P2;PMS_P1;PMS_P2;Temp;Humidity;BMP_temperature;BMP_pressure;BME280_temperature;BME280_humidity;BME280_pressure;Samples;Min_cycle;Max_cycle;Signal;HPM_P1;HPM_P2
2022/09/06 00:01:28;;;;;;;6.07;4.13;;;;;;;;;;4987966;28;20514;-68
2022/09/06 00:03:54;;;;;;;7.03;3.97;;;;;;;;;;4970935;28;20073;-67
2022/09/06 00:06:20;;;;;;;12.05;4.35;;;;;;;;;;4987623;28;20046;-68
2022/09/06 00:08:46;;;;;;;5.18;4.40;;;;;;;;;;4983414;28;20050;-67
2022/09/06 00:11:13;;;;;;;6.32;4.88;;;;;;;;;;4984644;28;20031;-67
2022/09/06 00:13:39;;;;;;;6.75;4.40;;;;;;;;;;4968059;28;20032;-66
2022/09/06 00:16:09;;;;;;;6.80;4.85;;;;;;;;;;4988672;28;20454;-69
2022/09/06 00:18:35;;;;;;;6.78;5.47;;;;;;;;;;4986295;28;20034;-68
2022/09/06 00:21:01;;;;;;;8.18;5.43;;;;;;;;;;4982897;28;20034;-68
2022/09/06 00:23:27;;;;;;;7.72;5.80;;;;;;;;;;4986328;28;20054;-68
2022/09/06 00:26:00;;;;;;;9.75;6.38;;;;;;;;;;4970378;28;20122;-69
2022/09/06 00:28:26;;;;;;;9.60;6.18;;;;;;;;;;4984280;28;20038;-68
2022/09/06 00:30:52;;;;;;;9.32;6.65;;;;;;;;;;4985232;28;20035;-68
2022/09/06 00:33:18;;;;;;;14.43;6.63;;;;;;;;;;4985922;28;20065;-66
2022/09/06 00:35:46;;;;;;;11.15;7.32;;;;;;;;;;4969638;28;20559;-67
2022/09/06 00:38:12;;;;;;;10.70;7.28;;;;;;;;;;4966914;28;20041;-68
2022/09/06 00:40:38;;;;;;;10.02;6.95;;;;;;;;;;4984222;28;20057;-69
2022/09/06 00:43:04;;;;;;;10.35;7.65;;;;;;;;;;4985759;28;20124;-69
2022/09/06 00:45:30;;;;;;;10.23;7.70;;;;;;;;;;4983678;28;20057;-70
2022/09/06 00:47:58;;;;;;;11.25;7.70;;;;;;;;;;4985880;28;20044;-69
2022/09/06 00:50:24;;;;;;;13.48;8.45;;;;;;;;;;4984854;28;20130;-69
2022/09/06 00:52:51;;;;;;;12.50;8.18;;;;;;;;;;4980432;28;20036;-69
2022/09/06 00:55:19;;;;;;;10.80;7.80;;;;;;;;;;4985419;28;20464;-68
2022/09/06 00:57:49;;;;;;;14.73;8.85;;;;;;;;;;4984635;28;20037;-69
2022/09/06 01:00:16;;;;;;;10.27;8.18;;;;;;;;;;4982876;28;20033;-68
2022/09/06 01:02:42;;;;;;;14.85;8.88;;;;;;;;;;4968659;28;20026;-69
2022/09/06 01:05:09;;;;;;;12.65;9.25;;;;;;;;;;4968579;28;20036;-68
2022/09/06 01:07:53;;;;;;;12.50;9.68;;;;;;;;;;4986420;28;20113;-70
2022/09/06 01:10:43;;;;;;;13.32;10.07;;;;;;;;;;4986537;28;20558;-68
2022/09/06 01:13:09;;;;;;;12.20;9.65;;;;;;;;;;4985933;28;20030;-68
2022/09/06 01:15:44;;;;;;;15.48;9.60;;;;;;;;;;4988202;28;20030;-68
2022/09/06 01:18:19;;;;;;;12.02;10.00;;;;;;;;;;4966417;28;20080;-68
2022/09/06 01:20:45;;;;;;;13.93;10.10;;;;;;;;;;4987165;28;20022;-67
2022/09/06 01:23:31;;;;;;;12.27;9.63;;;;;;;;;;4984523;28;20039;-68
2022/09/06 01:26:03;;;;;;;11.85;9.60;;;;;;;;;;4986203;28;20504;-67
2022/09/06 01:28:32;;;;;;;16.17;9.73;;;;;;;;;;4982546;28;20138;-68
2022/09/06 01:31:18;;;;;;;12.85;9.95;;;;;;;;;;4986630;28;20062;-67
2022/09/06 01:33:58;;;;;;;13.43;10.25;;;;;;;;;;4933018;28;20473;-68
2022/09/06 01:36:25;;;;;;;13.60;10.20;;;;;;;;;;4969429;28;20117;-67
2022/09/06 01:38:51;;;;;;;16.52;11.80;;;;;;;;;;4983528;28;20113;-67
2022/09/06 01:41:17;;;;;;;15.38;10.70;;;;;;;;;;4968418;28;20397;-67
2022/09/06 01:43:45;;;;;;;17.88;11.30;;;;;;;;;;4983119;28;20035;-67
2022/09/06 01:46:29;;;;;;;18.85;11.10;;;;;;;;;;4984135;28;20062;-67
2022/09/06 01:48:58;;;;;;;13.82;10.50;;;;;;;;;;4983775;28;20488;-67
2022/09/06 01:51:34;;;;;;;14.23;10.15;;;;;;;;;;4986388;28;20089;-67
2022/09/06 01:54:06;;;;;;;12.90;10.55;;;;;;;;;;4983989;28;20031;-67
2022/09/06 01:56:51;;;;;;;15.95;10.45;;;;;;;;;;4989560;28;20053;-67
2022/09/06 01:59:29;;;;;;;11.88;9.80;;;;;;;;;;4985788;28;20502;-67
2022/09/06 02:02:14;;;;;;;11.45;8.52;;;;;;;;;;4979094;28;20022;-67
2022/09/06 02:04:49;;;;;;;10.95;8.05;;;;;;;;;;4985072;28;20034;-67
2022/09/06 02:07:21;;;;;;;9.38;7.15;;;;;;;;;;4967547;28;20037;-67
2022/09/06 02:09:49;;;;;;;7.05;5.55;;;;;;;;;;4987255;28;20027;-68
2022/09/06 02:12:16;;;;;;;10.52;6.30;;;;;;;;;;4983421;28;20459;-66
2022/09/06 02:14:46;;;;;;;7.80;6.00;;;;;;;;;;4983770;28;20035;-67
2022/09/06 02:17:14;;;;;;;7.23;5.93;;;;;;;;;;4984523;28;20018;-68
2022/09/06 02:19:46;;;;;;;8.70;6.10;;;;;;;;;;4966026;28;20031;-68
2022/09/06 02:22:15;;;;;;;11.20;6.20;;;;;;;;;;4983732;28;20019;-68
2022/09/06 02:24:41;;;;;;;10.80;6.80;;;;;;;;;;4986209;28;20088;-68
2022/09/06 02:27:08;;;;;;;10.98;7.63;;;;;;;;;;4985120;28;20042;-68
2022/09/06 02:29:34;;;;;;;9.07;8.00;;;;;;;;;;4986032;28;20038;-68
2022/09/06 02:32:03;;;;;;;9.07;7.15;;;;;;;;;;4980288;28;20404;-68
2022/09/06 02:34:30;;;;;;;8.93;6.93;;;;;;;;;;4968608;28;20025;-68
2022/09/06 02:36:56;;;;;;;9.73;8.00;;;;;;;;;;4982673;28;20039;-67
2022/09/06 02:39:22;;;;;;;8.73;7.57;;;;;;;;;;4985748;28;20524;-68
2022/09/06 02:41:48;;;;;;;10.80;8.23;;;;;;;;;;4981957;28;20069;-68
2022/09/06 02:44:14;;;;;;;12.45;8.98;;;;;;;;;;4981897;28;20034;-68
2022/09/06 02:46:40;;;;;;;9.65;7.95;;;;;;;;;;4983377;28;20105;-68
2022/09/06 02:49:06;;;;;;;10.05;7.88;;;;;;;;;;4987312;28;20496;-69
2022/09/06 02:51:38;;;;;;;10.43;8.90;;;;;;;;;;4979208;28;20125;-68
2022/09/06 02:54:05;;;;;;;11.70;8.88;;;;;;;;;;4984963;28;20056;-69
2022/09/06 02:56:32;;;;;;;11.45;10.07;;;;;;;;;;4984416;28;20092;-67
2022/09/06 02:58:58;;;;;;;12.38;10.07;;;;;;;;;;4983690;28;20038;-68
2022/09/06 03:01:25;;;;;;;13.18;10.18;;;;;;;;;;4978245;28;20037;-68
2022/09/06 03:03:51;;;;;;;16.00;10.65;;;;;;;;;;4977154;28;20042;-69
2022/09/06 03:06:17;;;;;;;13.23;10.05;;;;;;;;;;4990336;28;20181;-67
2022/09/06 03:08:43;;;;;;;13.60;10.65;;;;;;;;;;4988848;28;20026;-67
2022/09/06 03:11:09;;;;;;;14.65;11.30;;;;;;;;;;4982451;28;20038;-67
2022/09/06 03:13:35;;;;;;;14.00;11.40;;;;;;;;;;4985660;28;20070;-67
2022/09/06 03:16:01;;;;;;;13.40;11.38;;;;;;;;;;4990069;28;20030;-67
2022/09/06 03:18:28;;;;;;;15.45;11.10;;;;;;;;;;4989611;28;20101;-67
2022/09/06 03:20:55;;;;;;;14.88;11.85;;;;;;;;;;4985175;28;20026;-67
2022/09/06 03:23:23;;;;;;;15.77;12.88;;;;;;;;;;4988800;28;20038;-67
2022/09/06 03:25:49;;;;;;;13.80;12.13;;;;;;;;;;4989658;28;20049;-67
2022/09/06 03:28:16;;;;;;;15.10;12.52;;;;;;;;;;4987607;28;20046;-67
2022/09/06 03:30:44;;;;;;;18.77;13.45;;;;;;;;;;4984025;28;20033;-67
2022/09/06 03:33:10;;;;;;;19.50;13.98;;;;;;;;;;4985692;28;20018;-68
2022/09/06 03:35:37;;;;;;;17.55;14.88;;;;;;;;;;4982111;28;20604;-67
2022/09/06 03:38:03;;;;;;;17.50;14.52;;;;;;;;;;4983923;28;20254;-67
2022/09/06 03:40:29;;;;;;;22.98;16.23;;;;;;;;;;4984299;28;20153;-68
2022/09/06 03:42:55;;;;;;;20.17;16.02;;;;;;;;;;4985354;28;20034;-68
2022/09/06 03:45:21;;;;;;;22.38;17.17;;;;;;;;;;4984274;28;20034;-68
2022/09/06 03:47:47;;;;;;;22.92;17.50;;;;;;;;;;4981246;28;20038;-67
2022/09/06 03:50:13;;;;;;;24.15;18.30;;;;;;;;;;4982522;28;20445;-67
2022/09/06 03:52:39;;;;;;;22.52;19.25;;;;;;;;;;4978460;28;20031;-68
2022/09/06 03:55:05;;;;;;;27.20;20.73;;;;;;;;;;4980173;28;20288;-69
2022/09/06 03:57:31;;;;;;;24.40;18.83;;;;;;;;;;4985837;28;20084;-68
2022/09/06 03:59:57;;;;;;;21.83;16.90;;;;;;;;;;4983022;28;20034;-68
2022/09/06 04:02:23;;;;;;;25.58;17.65;;;;;;;;;;4981055;28;21295;-66
2022/09/06 04:04:54;;;;;;;27.45;18.50;;;;;;;;;;4984929;28;20510;-67
2022/09/06 04:07:20;;;;;;;24.70;18.35;;;;;;;;;;4983697;28;20033;-68
2022/09/06 04:09:46;;;;;;;25.52;18.70;;;;;;;;;;4980642;28;20601;-67
2022/09/06 04:12:12;;;;;;;29.50;19.27;;;;;;;;;;4982988;28;20618;-67
2022/09/06 04:14:38;;;;;;;27.55;19.48;;;;;;;;;;4979785;28;20030;-67
2022/09/06 04:17:04;;;;;;;25.88;19.73;;;;;;;;;;4985287;28;20093;-67
2022/09/06 04:19:30;;;;;;;28.48;19.02;;;;;;;;;;4983390;28;20479;-67
2022/09/06 04:21:56;;;;;;;29.98;19.58;;;;;;;;;;4984558;28;20046;-67
2022/09/06 04:24:22;;;;;;;26.15;19.40;;;;;;;;;;4984310;28;20101;-67
2022/09/06 04:26:48;;;;;;;29.10;20.75;;;;;;;;;;4987132;28;20060;-67
2022/09/06 04:29:14;;;;;;;30.00;20.42;;;;;;;;;;4978589;28;20070;-68
2022/09/06 04:31:40;;;;;;;23.85;18.85;;;;;;;;;;4984672;28;20073;-67
2022/09/06 04:34:06;;;;;;;28.90;21.30;;;;;;;;;;4986145;28;20413;-68
2022/09/06 04:36:32;;;;;;;30.83;21.88;;;;;;;;;;4987017;28;20033;-67
2022/09/06 04:38:58;;;;;;;32.17;24.17;;;;;;;;;;4985964;28;20121;-67
2022/09/06 04:41:24;;;;;;;33.53;23.75;;;;;;;;;;4985735;28;20034;-67
2022/09/06 04:43:50;;;;;;;32.80;24.50;;;;;;;;;;4985212;28;20464;-67
2022/09/06 04:46:27;;;;;;;36.58;26.10;;;;;;;;;;4988983;28;20034;-68
2022/09/06 04:48:54;;;;;;;39.00;28.08;;;;;;;;;;4986566;28;20040;-67
2022/09/06 04:51:20;;;;;;;36.22;26.85;;;;;;;;;;4984336;28;20100;-68
2022/09/06 04:53:46;;;;;;;36.75;27.67;;;;;;;;;;4985879;28;20031;-67
2022/09/06 04:56:14;;;;;;;43.95;29.52;;;;;;;;;;4987025;28;20105;-67
2022/09/06 04:58:41;;;;;;;50.70;33.45;;;;;;;;;;4989107;28;20462;-68
2022/09/06 05:01:07;;;;;;;51.30;33.70;;;;;;;;;;4981303;28;20061;-67
2022/09/06 05:03:33;;;;;;;52.72;35.38;;;;;;;;;;4980538;28;20038;-68
2022/09/06 05:06:06;;;;;;;53.05;35.53;;;;;;;;;;4968048;28;20480;-67
2022/09/06 05:08:32;;;;;;;58.53;35.83;;;;;;;;;;4985469;28;20113;-67
2022/09/06 05:10:58;;;;;;;55.58;37.20;;;;;;;;;;4982325;28;20500;-67
2022/09/06 05:13:24;;;;;;;55.03;36.03;;;;;;;;;;4982493;28;20022;-67
2022/09/06 05:15:50;;;;;;;53.25;35.83;;;;;;;;;;4982621;28;20034;-67
2022/09/06 05:18:16;;;;;;;58.53;37.22;;;;;;;;;;4963727;28;20105;-68
2022/09/06 05:20:42;;;;;;;57.42;36.30;;;;;;;;;;4985428;28;20492;-68
2022/09/06 05:23:08;;;;;;;56.65;36.95;;;;;;;;;;4985050;28;20034;-67
2022/09/06 05:25:34;;;;;;;58.17;36.60;;;;;;;;;;4987041;28;20031;-68
2022/09/06 05:28:00;;;;;;;66.45;39.85;;;;;;;;;;4985521;28;20428;-68
2022/09/06 05:30:26;;;;;;;67.20;41.20;;;;;;;;;;4985381;28;20067;-68
2022/09/06 05:32:52;;;;;;;65.68;41.75;;;;;;;;;;4983747;28;20498;-68
2022/09/06 05:35:18;;;;;;;64.55;41.08;;;;;;;;;;4986392;28;20057;-67
2022/09/06 05:37:44;;;;;;;62.85;40.78;;;;;;;;;;4984588;28;20034;-67
2022/09/06 05:40:10;;;;;;;56.15;36.65;;;;;;;;;;4983865;28;20117;-67
2022/09/06 05:42:36;;;;;;;55.05;35.33;;;;;;;;;;4986557;28;20061;-67
2022/09/06 05:45:02;;;;;;;49.38;33.00;;;;;;;;;;4983982;28;20038;-67
2022/09/06 05:47:30;;;;;;;44.58;30.77;;;;;;;;;;4983494;28;20054;-67
2022/09/06 05:49:56;;;;;;;43.15;30.65;;;;;;;;;;4963994;28;20732;-67
2022/09/06 05:52:22;;;;;;;42.95;30.77;;;;;;;;;;4985678;28;20026;-67
2022/09/06 05:54:48;;;;;;;44.58;30.13;;;;;;;;;;4966089;28;20034;-66
2022/09/06 05:57:14;;;;;;;44.42;30.40;;;;;;;;;;4987491;28;20081;-67
2022/09/06 05:59:40;;;;;;;47.47;30.85;;;;;;;;;;4965949;28;20488;-67
2022/09/06 06:02:06;;;;;;;47.15;31.35;;;;;;;;;;4967967;28;20045;-67
2022/09/06 06:04:32;;;;;;;48.08;31.63;;;;;;;;;;4979217;28;20031;-67
2022/09/06 06:06:58;;;;;;;46.17;31.38;;;;;;;;;;4969027;28;20496;-67
2022/09/06 06:09:24;;;;;;;44.90;31.63;;;;;;;;;;4983382;28;20049;-67
2022/09/06 06:11:50;;;;;;;44.67;32.83;;;;;;;;;;4985732;28;20027;-67
2022/09/06 06:14:16;;;;;;;50.78;31.45;;;;;;;;;;4963148;28;20029;-67
2022/09/06 06:16:42;;;;;;;46.25;31.38;;;;;;;;;;4982504;28;20472;-67
2022/09/06 06:19:08;;;;;;;42.88;30.05;;;;;;;;;;4983674;28;20026;-67
2022/09/06 06:21:36;;;;;;;39.83;28.52;;;;;;;;;;4967315;28;20037;-67
2022/09/06 06:24:03;;;;;;;39.55;26.00;;;;;;;;;;4984476;28;20030;-67
2022/09/06 06:26:30;;;;;;;31.95;22.10;;;;;;;;;;4983321;28;20034;-67
2022/09/06 06:29:00;;;;;;;30.33;20.58;;;;;;;;;;4985977;28;20030;-67
2022/09/06 06:31:26;;;;;;;29.55;18.63;;;;;;;;;;4982894;28;20034;-69
2022/09/06 06:33:52;;;;;;;29.48;18.20;;;;;;;;;;4980788;28;20550;-66
2022/09/06 06:36:20;;;;;;;23.15;17.88;;;;;;;;;;4965030;28;20034;-67
2022/09/06 06:38:47;;;;;;;28.63;18.33;;;;;;;;;;4983073;28;20034;-67
2022/09/06 06:41:14;;;;;;;21.02;17.40;;;;;;;;;;4983410;28;20121;-68
2022/09/06 06:43:40;;;;;;;24.88;18.70;;;;;;;;;;4983353;28;20030;-67
2022/09/06 06:46:07;;;;;;;36.63;18.60;;;;;;;;;;4980572;28;20462;-66
2022/09/06 06:48:34;;;;;;;27.08;18.88;;;;;;;;;;4983655;28;20049;-66
2022/09/06 06:51:00;;;;;;;23.58;18.38;;;;;;;;;;4988012;28;20038;-68
2022/09/06 06:53:26;;;;;;;22.52;17.58;;;;;;;;;;4986644;28;20030;-68
2022/09/06 06:55:52;;;;;;;19.67;16.95;;;;;;;;;;4965471;28;20033;-68
2022/09/06 06:58:19;;;;;;;26.60;16.80;;;;;;;;;;4982722;28;20830;-67
2022/09/06 07:00:45;;;;;;;18.67;16.02;;;;;;;;;;4984878;28;20092;-67
2022/09/06 07:03:11;;;;;;;21.80;16.58;;;;;;;;;;4983773;28;20026;-68
2022/09/06 07:05:38;;;;;;;22.42;16.90;;;;;;;;;;4981016;28;20037;-67
2022/09/06 07:08:04;;;;;;;22.95;16.67;;;;;;;;;;4953370;28;20177;-67
2022/09/06 07:10:30;;;;;;;19.23;16.00;;;;;;;;;;4972362;28;20026;-67
2022/09/06 07:12:57;;;;;;;21.30;15.75;;;;;;;;;;4974359;28;20089;-67
2022/09/06 07:15:23;;;;;;;21.80;15.05;;;;;;;;;;4981458;28;20027;-69
2022/09/06 07:17:49;;;;;;;26.15;14.43;;;;;;;;;;4980356;28;20511;-68
2022/09/06 07:20:15;;;;;;;18.77;13.63;;;;;;;;;;4983921;28;20058;-68
2022/09/06 07:22:41;;;;;;;16.55;12.90;;;;;;;;;;4987392;28;20027;-69
2022/09/06 07:25:07;;;;;;;24.85;13.40;;;;;;;;;;4986002;28;20134;-68
2022/09/06 07:27:33;;;;;;;17.10;12.88;;;;;;;;;;4980747;28;20045;-66
2022/09/06 07:29:59;;;;;;;18.75;12.43;;;;;;;;;;4979876;28;20026;-67
2022/09/06 07:32:25;;;;;;;18.25;12.32;;;;;;;;;;4978325;28;20034;-68
2022/09/06 07:34:51;;;;;;;15.40;12.43;;;;;;;;;;4982806;28;20117;-68
2022/09/06 07:37:17;;;;;;;15.13;11.75;;;;;;;;;;4968138;28;20177;-68
2022/09/06 07:39:44;;;;;;;20.88;12.32;;;;;;;;;;4983266;28;21425;-67
2022/09/06 07:42:10;;;;;;;15.30;11.32;;;;;;;;;;4982341;28;20038;-68
2022/09/06 07:44:36;;;;;;;20.95;11.70;;;;;;;;;;4986028;28;20030;-67
2022/09/06 07:47:05;;;;;;;15.15;11.90;;;;;;;;;;4978321;28;20047;-68
2022/09/06 07:49:31;;;;;;;16.17;11.25;;;;;;;;;;4980764;28;20118;-68
2022/09/06 07:51:59;;;;;;;13.82;11.10;;;;;;;;;;4980067;28;20074;-68
2022/09/06 07:54:25;;;;;;;15.05;11.52;;;;;;;;;;4983403;28;20065;-66
2022/09/06 07:56:51;;;;;;;16.02;10.55;;;;;;;;;;4981016;28;20065;-67
2022/09/06 07:59:17;;;;;;;16.17;9.88;;;;;;;;;;4979860;28;20507;-68
2022/09/06 08:01:43;;;;;;;15.45;10.32;;;;;;;;;;4986279;28;20034;-69
2022/09/06 08:04:11;;;;;;;12.65;9.82;;;;;;;;;;4987852;28;20042;-68
2022/09/06 08:06:39;;;;;;;16.98;9.77;;;;;;;;;;4983914;28;20496;-67
2022/09/06 08:09:08;;;;;;;15.60;9.68;;;;;;;;;;4985764;28;20193;-68
2022/09/06 08:11:35;;;;;;;12.45;9.95;;;;;;;;;;4971457;28;20484;-67
2022/09/06 08:14:04;;;;;;;12.25;8.82;;;;;;;;;;4985829;28;20022;-68
2022/09/06 08:16:31;;;;;;;12.95;10.02;;;;;;;;;;4980325;28;20037;-67
2022/09/06 08:18:58;;;;;;;15.82;9.50;;;;;;;;;;4977311;28;20480;-67
2022/09/06 08:21:25;;;;;;;16.33;9.80;;;;;;;;;;4987719;28;20614;-68
2022/09/06 08:23:55;;;;;;;16.50;9.82;;;;;;;;;;4989384;28;20030;-68
2022/09/06 08:26:22;;;;;;;12.90;9.73;;;;;;;;;;4991881;28;20174;-66
2022/09/06 08:28:53;;;;;;;17.25;10.02;;;;;;;;;;4964261;28;20049;-69
2022/09/06 08:31:19;;;;;;;21.05;9.93;;;;;;;;;;4982904;28;20535;-68
2022/09/06 08:33:46;;;;;;;11.90;9.75;;;;;;;;;;4984956;28;20030;-67
2022/09/06 08:36:13;;;;;;;11.82;9.95;;;;;;;;;;4989663;28;20053;-67
2022/09/06 08:38:39;;;;;;;11.65;9.75;;;;;;;;;;4990276;28;20430;-68
2022/09/06 08:41:10;;;;;;;11.75;9.10;;;;;;;;;;4991037;28;20058;-67
2022/09/06 08:43:37;;;;;;;11.48;8.80;;;;;;;;;;4992529;28;20038;-68
2022/09/06 08:46:03;;;;;;;14.73;8.82;;;;;;;;;;4990164;28;20031;-68
2022/09/06 08:48:32;;;;;;;12.90;8.07;;;;;;;;;;4987200;28;20096;-68
2022/09/06 08:51:15;;;;;;;11.23;8.70;;;;;;;;;;4989744;28;20449;-67
2022/09/06 08:53:47;;;;;;;12.02;8.13;;;;;;;;;;4991770;28;20468;-67
2022/09/06 08:56:19;;;;;;;10.73;7.38;;;;;;;;;;4989786;28;20029;-68
2022/09/06 08:59:05;;;;;;;9.80;7.43;;;;;;;;;;4989480;28;20045;-68
2022/09/06 09:01:45;;;;;;;8.45;6.85;;;;;;;;;;4983504;28;20144;-68
2022/09/06 09:04:13;;;;;;;8.90;7.00;;;;;;;;;;4983724;28;20038;-67
2022/09/06 09:06:39;;;;;;;10.50;7.20;;;;;;;;;;4987152;28;20054;-67
2022/09/06 09:09:07;;;;;;;14.52;7.82;;;;;;;;;;4990052;28;20096;-66
2022/09/06 09:11:34;;;;;;;10.88;7.47;;;;;;;;;;4987788;28;20023;-67
2022/09/06 09:14:19;;;;;;;12.60;7.78;;;;;;;;;;4983681;28;20577;-67
2022/09/06 09:16:49;;;;;;;12.32;8.02;;;;;;;;;;4984721;28;20026;-67
2022/09/06 09:19:15;;;;;;;10.48;7.35;;;;;;;;;;4989226;28;20027;-67
2022/09/06 09:21:41;;;;;;;10.00;7.10;;;;;;;;;;4990249;28;20044;-65
2022/09/06 09:24:11;;;;;;;9.30;8.05;;;;;;;;;;4989341;28;20122;-66
2022/09/06 09:26:37;;;;;;;;;;;;;;;;;;4990623;28;20034;-66
2022/09/06 09:29:09;;;;;;;9.32;6.63;;;;;;;;;;4989662;28;19913;-66
2022/09/06 09:31:42;;;;;;;9.93;6.68;;;;;;;;;;4983036;28;20030;-66
2022/09/06 09:34:12;;;;;;;9.82;6.65;;;;;;;;;;4983863;28;20146;-66
2022/09/06 09:36:39;;;;;;;9.23;6.28;;;;;;;;;;4979288;28;20559;-67
2022/09/06 09:39:11;;;;;;;9.93;6.22;;;;;;;;;;4982482;28;20038;-67
2022/09/06 09:41:39;;;;;;;10.05;5.50;;;;;;;;;;4983272;28;20495;-67
2022/09/06 09:44:07;;;;;;;8.40;6.50;;;;;;;;;;4982362;28;20030;-66
2022/09/06 09:46:34;;;;;;;11.52;6.32;;;;;;;;;;4985730;28;20038;-67
2022/09/06 09:49:10;;;;;;;13.30;7.15;;;;;;;;;;4988772;28;20089;-67
2022/09/06 09:51:39;;;;;;;8.65;6.18;;;;;;;;;;4988055;28;20042;-66
2022/09/06 09:54:07;;;;;;;21.63;7.38;;;;;;;;;;4983262;28;20034;-66
2022/09/06 09:56:42;;;;;;;8.38;5.70;;;;;;;;;;4985985;28;20064;-66
2022/09/06 09:59:27;;;;;;;10.15;6.45;;;;;;;;;;4987310;28;20035;-67
2022/09/06 10:01:54;;;;;;;13.57;6.95;;;;;;;;;;4983098;28;20021;-66
2022/09/06 10:04:25;;;;;;;10.73;6.70;;;;;;;;;;4988248;28;20030;-66
2022/09/06 10:06:51;;;;;;;11.90;6.82;;;;;;;;;;4979126;28;20031;-66
2022/09/06 10:09:22;;;;;;;7.25;5.55;;;;;;;;;;4987411;28;20065;-67
2022/09/06 10:11:55;;;;;;;9.63;5.53;;;;;;;;;;4989156;28;20483;-66
2022/09/06 10:14:29;;;;;;;8.27;6.07;;;;;;;;;;4989453;28;20034;-67
2022/09/06 10:16:56;;;;;;;13.73;6.68;;;;;;;;;;4983588;28;20029;-67
2022/09/06 10:19:23;;;;;;;9.77;6.10;;;;;;;;;;4984385;28;20044;-66
2022/09/06 10:21:54;;;;;;;7.13;4.75;;;;;;;;;;4984226;28;20030;-67
2022/09/06 10:24:40;;;;;;;8.27;5.28;;;;;;;;;;4957367;28;21262;-67
2022/09/06 10:27:07;;;;;;;6.13;3.40;;;;;;;;;;4943020;28;20050;-67
2022/09/06 10:29:33;;;;;;;9.82;3.13;;;;;;;;;;4979165;28;20058;-67
2022/09/06 10:32:02;;;;;;;10.00;4.00;;;;;;;;;;4979328;28;20112;-67
2022/09/06 10:34:28;;;;;;;11.15;4.20;;;;;;;;;;4978683;28;20347;-67
2022/09/06 10:37:02;;;;;;;8.95;5.22;;;;;;;;;;4978201;28;20049;-67
2022/09/06 10:39:40;;;;;;;7.65;4.20;;;;;;;;;;4978363;28;20058;-67
2022/09/06 10:42:06;;;;;;;6.82;5.03;;;;;;;;;;4978229;28;20030;-67
2022/09/06 10:44:32;;;;;;;8.18;5.03;;;;;;;;;;4979465;28;20038;-66
2022/09/06 10:47:11;;;;;;;8.43;5.03;;;;;;;;;;4980537;28;20085;-67
2022/09/06 10:49:39;;;;;;;13.83;5.77;;;;;;;;;;4977453;28;20041;-67
2022/09/06 10:52:07;;;;;;;7.63;5.43;;;;;;;;;;4980478;28;20490;-68
2022/09/06 10:54:35;;;;;;;8.27;5.13;;;;;;;;;;4981526;28;21589;-66
2022/09/06 10:57:04;;;;;;;16.73;6.70;;;;;;;;;;4965422;28;20040;-66
2022/09/06 10:59:32;;;;;;;12.73;6.45;;;;;;;;;;4982342;28;20030;-66
2022/09/06 11:01:58;;;;;;;10.02;5.30;;;;;;;;;;4978303;28;20522;-66
2022/09/06 11:04:28;;;;;;;7.90;5.10;;;;;;;;;;4978481;28;20196;-66
2022/09/06 11:06:57;;;;;;;7.90;6.40;;;;;;;;;;4982629;28;20030;-66
2022/09/06 11:09:27;;;;;;;7.97;5.15;;;;;;;;;;4983987;28;20042;-66
2022/09/06 11:12:00;;;;;;;8.70;5.38;;;;;;;;;;4957712;28;20125;-76
2022/09/06 11:14:26;;;;;;;8.73;6.28;;;;;;;;;;4983719;28;20590;-76
2022/09/06 11:17:01;;;;;;;7.57;4.55;;;;;;;;;;4983307;28;20037;-76
2022/09/06 11:19:31;;;;;;;13.55;4.90;;;;;;;;;;4984133;28;20031;-76
2022/09/06 11:22:03;;;;;;;12.37;6.17;;;;;;;;;;4985800;28;20074;-76
2022/09/06 11:24:44;;;;;;;12.30;7.70;;;;;;;;;;4981329;28;21735;-76
2022/09/06 11:27:10;;;;;;;15.82;8.52;;;;;;;;;;4986533;28;20133;-76
2022/09/06 11:29:40;;;;;;;10.93;6.88;;;;;;;;;;4984220;28;20041;-76
2022/09/06 11:32:26;;;;;;;12.30;7.72;;;;;;;;;;4985592;28;20074;-77
2022/09/06 11:34:56;;;;;;;10.27;7.78;;;;;;;;;;4984079;28;20508;-76
2022/09/06 11:37:33;;;;;;;11.57;6.53;;;;;;;;;;4988622;28;20030;-76
2022/09/06 11:40:11;;;;;;;12.43;7.47;;;;;;;;;;4988759;28;20038;-77
2022/09/06 11:42:37;;;;;;;14.23;8.45;;;;;;;;;;4987452;28;20480;-76
2022/09/06 11:45:06;;;;;;;22.60;9.65;;;;;;;;;;4987836;28;20030;-76
2022/09/06 11:47:37;;;;;;;23.05;9.90;;;;;;;;;;4988119;28;20031;-76
2022/09/06 11:50:24;;;;;;;19.08;9.40;;;;;;;;;;4990731;28;20030;-77
2022/09/06 11:52:56;;;;;;;74.22;14.70;;;;;;;;;;4989919;28;20308;-76
2022/09/06 11:55:24;;;;;;;12.65;8.90;;;;;;;;;;4979656;28;20061;-75
2022/09/06 11:57:54;;;;;;;10.50;8.15;;;;;;;;;;4991848;28;20035;-76
2022/09/06 12:00:22;;;;;;;13.02;8.73;;;;;;;;;;4990970;28;20068;-76
2022/09/06 12:02:48;;;;;;;13.75;9.65;;;;;;;;;;4990388;28;20522;-76
2022/09/06 12:05:21;;;;;;;13.82;8.80;;;;;;;;;;4991345;28;20038;-76
2022/09/06 12:08:06;;;;;;;15.18;10.05;;;;;;;;;;4995236;28;20478;-77
2022/09/06 12:10:38;;;;;;;15.27;10.30;;;;;;;;;;4995856;28;20483;-76
2022/09/06 12:13:24;;;;;;;16.35;10.45;;;;;;;;;;4991943;28;20057;-75
2022/09/06 12:15:55;;;;;;;13.70;10.20;;;;;;;;;;4943815;28;20045;-77
2022/09/06 12:18:39;;;;;;;22.55;10.13;;;;;;;;;;4995850;28;20041;-77
2022/09/06 12:21:05;;;;;;;11.35;9.20;;;;;;;;;;4998272;28;20037;-75
2022/09/06 12:23:34;;;;;;;13.18;8.68;;;;;;;;;;4974410;28;20129;-76
2022/09/06 12:26:10;;;;;;;14.02;10.50;;;;;;;;;;4989772;28;20487;-75
2022/09/06 12:28:48;;;;;;;13.75;10.00;;;;;;;;;;4980426;28;20042;-76
2022/09/06 12:31:37;;;;;;;13.57;8.73;;;;;;;;;;4990671;28;20026;-75
2022/09/06 12:34:08;;;;;;;17.50;8.30;;;;;;;;;;4991909;28;20065;-75
2022/09/06 12:36:34;;;;;;;12.55;8.70;;;;;;;;;;4995469;28;20034;-75
2022/09/06 12:39:10;;;;;;;13.15;9.25;;;;;;;;;;4996672;28;20042;-76
2022/09/06 12:41:42;;;;;;;20.23;9.60;;;;;;;;;;4997876;28;20065;-75
2022/09/06 12:44:08;;;;;;;12.60;8.02;;;;;;;;;;4994859;28;20038;-76
2022/09/06 12:46:35;;;;;;;13.82;7.82;;;;;;;;;;4996981;28;20495;-76
2022/09/06 12:49:06;;;;;;;11.18;8.10;;;;;;;;;;4998651;28;20452;-75
2022/09/06 12:51:33;;;;;;;10.10;7.80;;;;;;;;;;4999018;28;20065;-74
2022/09/06 12:54:01;;;;;;;10.40;7.30;;;;;;;;;;4999550;28;20041;-75
2022/09/06 12:56:28;;;;;;;15.27;7.97;;;;;;;;;;5003866;28;20030;-74
2022/09/06 12:59:09;;;;;;;13.48;8.60;;;;;;;;;;4997132;28;20518;-73
2022/09/06 13:01:36;;;;;;;14.38;8.77;;;;;;;;;;4994244;28;20488;-76
2022/09/06 13:04:05;;;;;;;14.85;10.30;;;;;;;;;;4997374;28;20510;-74
2022/09/06 13:06:37;;;;;;;15.48;9.00;;;;;;;;;;5000302;28;20022;-74
2022/09/06 13:09:03;;;;;;;14.20;8.13;;;;;;;;;;4994043;28;20054;-74
2022/09/06 13:11:37;;;;;;;13.10;9.70;;;;;;;;;;4980333;28;20061;-75
2022/09/06 13:14:10;;;;;;;14.30;7.60;;;;;;;;;;4990696;28;20053;-75
2022/09/06 13:16:37;;;;;;;16.17;6.47;;;;;;;;;;4997099;28;20089;-76
2022/09/06 13:19:27;;;;;;;9.75;6.05;;;;;;;;;;4997651;28;20037;-75
2022/09/06 13:21:53;;;;;;;10.27;5.70;;;;;;;;;;4983214;28;20046;-76
2022/09/06 13:24:24;;;;;;;9.43;5.80;;;;;;;;;;4993654;28;20505;-74
2022/09/06 13:26:52;;;;;;;12.32;5.75;;;;;;;;;;4988547;28;20045;-75
2022/09/06 13:29:18;;;;;;;7.97;6.07;;;;;;;;;;4991514;28;20045;-75
2022/09/06 13:31:49;;;;;;;9.18;6.60;;;;;;;;;;4994922;28;20048;-75
2022/09/06 13:34:22;;;;;;;9.38;5.85;;;;;;;;;;4994841;28;20546;-75
2022/09/06 13:36:49;;;;;;;13.73;8.27;;;;;;;;;;4994168;28;20023;-75
2022/09/06 13:39:30;;;;;;;11.50;7.82;;;;;;;;;;4994229;28;20030;-75
2022/09/06 13:41:59;;;;;;;10.93;8.75;;;;;;;;;;4994289;28;20050;-74
2022/09/06 13:44:29;;;;;;;16.35;8.80;;;;;;;;;;4994526;28;20030;-75
2022/09/06 13:46:55;;;;;;;;;;;;;;;;;;4994565;28;20041;-76
2022/09/06 13:49:22;;;;;;;15.25;9.65;;;;;;;;;;4992161;28;19976;-75
2022/09/06 13:51:50;;;;;;;15.60;9.05;;;;;;;;;;4993497;28;20053;-75
2022/09/06 13:54:16;;;;;;;14.60;8.90;;;;;;;;;;4991731;28;20081;-75
2022/09/06 13:56:47;;;;;;;12.43;8.85;;;;;;;;;;4991959;28;20026;-74
2022/09/06 13:59:13;;;;;;;14.98;9.68;;;;;;;;;;4985690;28;20038;-75
2022/09/06 14:01:40;;;;;;;13.18;8.63;;;;;;;;;;4972533;28;20038;-74
2022/09/06 14:04:07;;;;;;;10.75;6.30;;;;;;;;;;4988969;28;20542;-74
2022/09/06 14:06:34;;;;;;;9.75;6.32;;;;;;;;;;4990221;28;20138;-75
2022/09/06 14:09:01;;;;;;;9.02;5.53;;;;;;;;;;4987149;28;20035;-75
2022/09/06 14:11:27;;;;;;;7.00;5.32;;;;;;;;;;4988787;28;20136;-75
2022/09/06 14:13:53;;;;;;;14.85;7.65;;;;;;;;;;4984924;28;20105;-75
2022/09/06 14:16:19;;;;;;;14.05;6.85;;;;;;;;;;4985554;28;20018;-73
2022/09/06 14:18:45;;;;;;;12.02;6.80;;;;;;;;;;4983337;28;20837;-73
2022/09/06 14:21:11;;;;;;;12.10;6.75;;;;;;;;;;4980037;28;20561;-72
2022/09/06 14:23:37;;;;;;;9.90;5.40;;;;;;;;;;4984837;28;20026;-73
2022/09/06 14:26:04;;;;;;;9.45;5.50;;;;;;;;;;4984764;28;20034;-74
2022/09/06 14:28:30;;;;;;;13.80;6.53;;;;;;;;;;4986555;28;20030;-75
2022/09/06 14:30:56;;;;;;;10.70;6.70;;;;;;;;;;4983959;28;20038;-74
2022/09/06 14:33:22;;;;;;;8.40;5.78;;;;;;;;;;4979646;28;20384;-75
2022/09/06 14:35:48;;;;;;;8.32;6.18;;;;;;;;;;4962337;28;20038;-75
2022/09/06 14:38:15;;;;;;;17.60;7.82;;;;;;;;;;4982337;28;20030;-73